Flight Track Log - Related Links

Times and Time Zones

All times are in EDT time to prevent confusion due to time zone crossing. See the N422TB flight status page for this flight to view local times or setup timezone preferences in your user account.

Time Position Orientation Groundspeed Altitude Reporting Facility
EDT Latitude Longitude Course Direction KTS MPH feet Rate Location/Type
Sun 04:26:06 PM 26.5844 -81.7481 80° East 147 169 2,200  Level Miami Center
Sun 04:27:08 PM 26.5864 -81.7017 87° East 148 170 3,000 774 Climbing Miami Center
Sun 04:28:10 PM 26.5881 -81.6536 88° East 147 169 3,800 768 Climbing Miami Center
Sun 04:29:00 PM 26.5366 -81.6402 79° East  Level Estimated
Sun 04:29:13 PM 26.5897 -81.6119 87° East 141 162 4,600  Level Miami Center
Sun 04:30:00 PM 26.5265 -81.5956 61° Northeast  Level Estimated
Sun 04:30:15 PM 26.5847 -81.5686 97° East 135 155 5,300  Level Miami Center
Sun 04:31:00 PM 26.5165 -81.5510 80° East  Level Estimated
Sun 04:31:17 PM 26.5794 -81.5233 97° East 135 155 6,000  Level Miami Center
Sun 04:32:19 PM 26.5744 -81.4808 97° East 138 159 6,600 532 Climbing Miami Center
Sun 04:33:21 PM 26.5678 -81.4339 99° East 141 162 7,100 242 Climbing Miami Center
Sun 04:34:23 PM 26.5619 -81.3853 98° East 158 182 7,100  Level Miami Center
Sun 04:35:26 PM 26.5558 -81.3319 97° East 162 186 7,100  Level Miami Center
Sun 04:36:28 PM 26.5500 -81.2836 98° East 162 186 7,100  Level Miami Center
Sun 04:37:30 PM 26.5447 -81.2300 96° East 162 186 7,100  Level Miami Center
Sun 04:38:32 PM 26.5381 -81.1808 99° East 162 186 7,100  Level Miami Center
Sun 04:39:34 PM 26.5250 -81.1281 105° East 162 186 7,100  Level Miami Center
Sun 04:40:37 PM 26.5117 -81.0753 106° East 164 189 7,100  Level Miami Center
Sun 04:41:39 PM 26.4975 -81.0264 108° East 166 191 7,100 -242 Level Miami Center
Sun 04:42:41 PM 26.4819 -80.9714 108° East 174 200 6,600 -537 Descending Miami Center
Sun 04:43:42 PM 26.4650 -80.9172 109° East 189 217 6,000 -639 Descending Miami Center
Sun 04:44:43 PM 26.4483 -80.8553 107° East 196 226 5,300 -667 Descending Miami Center
Sun 04:45:39 PM 26.4350 -80.8053 107° East 197 227 4,700 -585 Descending Miami Center
Sun 04:46:46 PM 26.4161 -80.7408 108° East 181 208 4,100 -364 Descending Miami Center
Sun 04:47:51 PM 26.3803 -80.7111 143° Southeast 160 184 3,900 -328 Descending Miami Center
Sun 04:48:54 PM 26.3431 -80.6814 144° Southeast 162 186 3,400 -407 Descending Miami Center
Sun 04:49:49 PM 26.3375 -80.6300 97° East 172 198 3,100 -157 Descending Miami Center
Sun 04:50:49 PM 26.3342 -80.5831 95° East 150 173 3,100  Level Miami Center
Sun 04:51:57 PM 26.3314 -80.5317 93° East 159 183 3,100  Level Miami Center
Sun 04:52:51 PM 26.3281 -80.4850 95° East 165 190 3,100  Level Miami Center
Sun 04:53:02 PM 26.3281 -80.4753 90° East 160 184 3,100  Level Miami Center
Sun 04:53:53 PM 26.3250 -80.4336 95° East 164 189 3,100  Level Miami Center
Sun 04:54:04 PM 26.3261 -80.4247 82° East 161 185 3,100  Level Miami Center
Sun 04:54:54 PM 26.3242 -80.3825 93° East 164 189 3,100  Level Miami Center
Sun 04:55:06 PM 26.3231 -80.3697 96° East 162 186 3,100  Level Miami Center
Sun 04:55:55 PM 26.3214 -80.3286 93° East 169 194 3,100  Level Miami Center
Sun 04:56:56 PM 26.3164 -80.2750 96° East 167 192 3,100  Level Miami Center
Sun 04:57:10 PM 26.3169 -80.2622 87° East 167 192 3,100  Level Miami Center
Sun 04:57:57 PM 26.3153 -80.2236 93° East 167 192 3,100  Level Miami Center
Sun 04:58:12 PM 26.3147 -80.2103 93° East 167 192 3,100  Level Miami Center
Sun 04:58:58 PM 26.3122 -80.1722 94° East 163 188 3,100  Level Miami Center
Sun 04:59:14 PM 26.3125 -80.1597 89° East 167 192 3,100  Level Miami Center
Sun 04:59:59 PM 26.3092 -80.1186 95° East 163 188 3,100  Level Miami Center
Sun 05:00:16 PM 26.3100 -80.1056 86° East 166 191 3,100  Level Miami Center
Sun 05:01:00 PM 26.3083 -80.0675 93° East 165 190 3,100  Level Miami Center
Sun 05:01:18 PM 26.3069 -80.0550 97° East 166 191 3,100  Level Miami Center
Sun 05:02:01 PM 26.3050 -80.0161 93° East 162 186 3,100  Level Miami Center
Sun 05:02:20 PM 26.3064 -80.0047 82° East 165 190 3,100  Level Miami Center
Sun 05:03:02 PM 26.3161 -79.9728 71° East 143 165 3,100  Level Miami Center
Sun 05:03:21 PM 26.3172 -79.9589 85° East 146 168 3,100  Level Miami Center
Sun 05:04:03 PM 26.2947 -79.9456 152° Southeast 139 160 3,100 -194 Level Miami Center
Sun 05:04:23 PM 26.2842 -79.9461 183° South 133 153 2,900 -677 Descending Miami Center
Sun 05:05:05 PM 26.2553 -79.9403 170° South 142 163 2,400 -581 Descending Miami Center
Sun 05:05:25 PM 26.2458 -79.9389 172° South 138 159 2,300 -269 Descending Miami Center
Sun 05:06:12 PM 26.2225 -79.9633 223° Southwest 140 161 2,100 -194 Descending Miami Center
Sun 05:06:27 PM 26.2231 -79.9675 278° West 138 159 2,100 -492 Level Miami Center
Sun 05:07:13 PM 26.2136 -80.0047 254° West 142 163 1,600 -484 Descending Miami Center
Sun 05:07:29 PM 26.2117 -80.0100 248° West 140 161 1,600 -98 Level Miami Center
Sun 05:08:14 PM 26.2108 -80.0486 269° West 128 147 1,500  Descending Miami Center
Sun 05:08:31 PM 26.2111 -80.0519 275° West 138 159 1,600 109 Climbing Miami Center
Sun 05:09:09 PM 26.2089 -80.0808 265° West 107 123 1,600 -194 Level Miami Center
Sun 05:09:33 PM 26.2064 -80.0928 257° West 113 130 1,400 -627 Descending Miami Center
Sun 05:10:16 PM 26.2025 -80.1197 261° West 120 138 900 -677 Descending Miami Center
Sun 05:10:35 PM 26.2019 -80.1306 267° West 114 131 700 -492 Descending Miami Center
Sun 05:11:17 PM 26.2003 -80.1522 265° West 93 107 400 -484 Descending Miami Center
Sun 05:11:37 PM 26.1994 -80.1597 263° West 98 113 200 -600 Descending Miami Center

Login

Don't have an account? Register now (free) for customized features, flight alerts, and more!